sensor_id;sensor_type;location;lat;lon;timestamp;P1;durP1;ratioP1;P2;durP2;ratioP2
11524;SDS011;5819;49.648;8.330;2023-02-22T00:00:43;20.45;;;14.93;;
11524;SDS011;5819;49.648;8.330;2023-02-22T00:03:15;18.90;;;14.45;;
11524;SDS011;5819;49.648;8.330;2023-02-22T00:05:51;20.25;;;14.18;;
11524;SDS011;5819;49.648;8.330;2023-02-22T00:08:21;20.33;;;15.10;;
11524;SDS011;5819;49.648;8.330;2023-02-22T00:10:50;20.15;;;15.15;;
11524;SDS011;5819;49.648;8.330;2023-02-22T00:13:18;19.30;;;15.30;;
11524;SDS011;5819;49.648;8.330;2023-02-22T00:15:49;20.45;;;15.30;;
11524;SDS011;5819;49.648;8.330;2023-02-22T00:18:18;19.60;;;14.25;;
11524;SDS011;5819;49.648;8.330;2023-02-22T00:20:46;25.83;;;15.02;;
11524;SDS011;5819;49.648;8.330;2023-02-22T00:23:14;20.50;;;15.13;;
11524;SDS011;5819;49.648;8.330;2023-02-22T00:25:45;19.00;;;14.75;;
11524;SDS011;5819;49.648;8.330;2023-02-22T00:28:14;20.85;;;14.88;;
11524;SDS011;5819;49.648;8.330;2023-02-22T00:30:43;23.33;;;16.02;;
11524;SDS011;5819;49.648;8.330;2023-02-22T00:33:15;20.92;;;15.10;;
11524;SDS011;5819;49.648;8.330;2023-02-22T00:35:44;21.05;;;15.90;;
11524;SDS011;5819;49.648;8.330;2023-02-22T00:38:12;17.60;;;13.13;;
11524;SDS011;5819;49.648;8.330;2023-02-22T00:40:42;17.60;;;13.43;;
11524;SDS011;5819;49.648;8.330;2023-02-22T00:43:10;19.08;;;14.63;;
11524;SDS011;5819;49.648;8.330;2023-02-22T00:45:39;19.65;;;15.45;;
11524;SDS011;5819;49.648;8.330;2023-02-22T00:48:08;18.92;;;15.07;;
11524;SDS011;5819;49.648;8.330;2023-02-22T00:50:38;22.63;;;15.32;;
11524;SDS011;5819;49.648;8.330;2023-02-22T00:53:06;22.13;;;15.48;;
11524;SDS011;5819;49.648;8.330;2023-02-22T00:55:35;23.38;;;15.82;;
11524;SDS011;5819;49.648;8.330;2023-02-22T00:58:04;22.63;;;16.98;;
11524;SDS011;5819;49.648;8.330;2023-02-22T01:00:34;24.27;;;16.77;;
11524;SDS011;5819;49.648;8.330;2023-02-22T01:03:03;20.92;;;15.82;;
11524;SDS011;5819;49.648;8.330;2023-02-22T01:05:33;21.13;;;16.90;;
11524;SDS011;5819;49.648;8.330;2023-02-22T01:08:04;25.58;;;17.88;;
11524;SDS011;5819;49.648;8.330;2023-02-22T01:10:34;22.58;;;19.42;;
11524;SDS011;5819;49.648;8.330;2023-02-22T01:13:03;26.98;;;18.75;;
11524;SDS011;5819;49.648;8.330;2023-02-22T01:15:35;25.52;;;19.98;;
11524;SDS011;5819;49.648;8.330;2023-02-22T01:18:04;26.60;;;20.80;;
11524;SDS011;5819;49.648;8.330;2023-02-22T01:20:32;27.65;;;20.83;;
11524;SDS011;5819;49.648;8.330;2023-02-22T01:23:01;28.27;;;21.33;;
11524;SDS011;5819;49.648;8.330;2023-02-22T01:25:33;24.48;;;20.10;;
11524;SDS011;5819;49.648;8.330;2023-02-22T01:28:03;23.65;;;18.77;;
11524;SDS011;5819;49.648;8.330;2023-02-22T01:30:33;24.58;;;20.02;;
11524;SDS011;5819;49.648;8.330;2023-02-22T01:33:03;23.33;;;18.80;;
11524;SDS011;5819;49.648;8.330;2023-02-22T01:35:33;31.00;;;20.48;;
11524;SDS011;5819;49.648;8.330;2023-02-22T01:38:01;23.75;;;20.23;;
11524;SDS011;5819;49.648;8.330;2023-02-22T01:40:32;25.23;;;20.95;;
11524;SDS011;5819;49.648;8.330;2023-02-22T01:43:03;26.50;;;20.50;;
11524;SDS011;5819;49.648;8.330;2023-02-22T01:45:46;26.75;;;21.10;;
11524;SDS011;5819;49.648;8.330;2023-02-22T01:48:20;26.73;;;20.60;;
11524;SDS011;5819;49.648;8.330;2023-02-22T01:50:53;26.02;;;20.58;;
11524;SDS011;5819;49.648;8.330;2023-02-22T01:53:24;27.88;;;22.63;;
11524;SDS011;5819;49.648;8.330;2023-02-22T01:55:58;29.05;;;22.00;;
11524;SDS011;5819;49.648;8.330;2023-02-22T01:58:28;28.60;;;21.52;;
11524;SDS011;5819;49.648;8.330;2023-02-22T02:00:59;28.73;;;22.45;;
11524;SDS011;5819;49.648;8.330;2023-02-22T02:03:28;29.52;;;22.30;;
11524;SDS011;5819;49.648;8.330;2023-02-22T02:06:00;30.75;;;21.48;;
11524;SDS011;5819;49.648;8.330;2023-02-22T02:08:32;29.15;;;22.20;;
11524;SDS011;5819;49.648;8.330;2023-02-22T02:11:05;29.63;;;21.65;;
11524;SDS011;5819;49.648;8.330;2023-02-22T02:13:35;23.80;;;20.20;;
11524;SDS011;5819;49.648;8.330;2023-02-22T02:16:04;29.25;;;23.10;;
11524;SDS011;5819;49.648;8.330;2023-02-22T02:18:32;32.78;;;22.95;;
11524;SDS011;5819;49.648;8.330;2023-02-22T02:21:13;30.00;;;23.10;;
11524;SDS011;5819;49.648;8.330;2023-02-22T02:27:12;32.47;;;23.40;;
11524;SDS011;5819;49.648;8.330;2023-02-22T02:30:01;33.40;;;24.00;;
11524;SDS011;5819;49.648;8.330;2023-02-22T02:32:56;31.45;;;22.60;;
11524;SDS011;5819;49.648;8.330;2023-02-22T02:35:31;28.35;;;22.67;;
11524;SDS011;5819;49.648;8.330;2023-02-22T02:38:09;27.60;;;22.73;;
11524;SDS011;5819;49.648;8.330;2023-02-22T02:40:43;29.30;;;22.30;;
11524;SDS011;5819;49.648;8.330;2023-02-22T02:43:16;27.40;;;22.85;;
11524;SDS011;5819;49.648;8.330;2023-02-22T02:45:54;28.75;;;21.75;;
11524;SDS011;5819;49.648;8.330;2023-02-22T02:48:29;28.67;;;21.10;;
11524;SDS011;5819;49.648;8.330;2023-02-22T02:51:02;27.27;;;22.27;;
11524;SDS011;5819;49.648;8.330;2023-02-22T02:53:35;27.65;;;22.20;;
11524;SDS011;5819;49.648;8.330;2023-02-22T02:56:05;30.75;;;21.75;;
11524;SDS011;5819;49.648;8.330;2023-02-22T02:58:41;27.00;;;21.73;;
11524;SDS011;5819;49.648;8.330;2023-02-22T03:01:16;26.73;;;21.60;;
11524;SDS011;5819;49.648;8.330;2023-02-22T03:09:53;28.20;;;21.08;;
11524;SDS011;5819;49.648;8.330;2023-02-22T03:12:41;24.77;;;20.00;;
11524;SDS011;5819;49.648;8.330;2023-02-22T03:15:18;25.63;;;20.00;;
11524;SDS011;5819;49.648;8.330;2023-02-22T03:17:59;27.17;;;21.70;;
11524;SDS011;5819;49.648;8.330;2023-02-22T03:20:36;25.95;;;21.42;;
11524;SDS011;5819;49.648;8.330;2023-02-22T03:23:09;26.95;;;21.45;;
11524;SDS011;5819;49.648;8.330;2023-02-22T03:25:42;29.13;;;21.27;;
11524;SDS011;5819;49.648;8.330;2023-02-22T03:28:16;29.92;;;22.17;;
11524;SDS011;5819;49.648;8.330;2023-02-22T03:30:47;27.40;;;21.33;;
11524;SDS011;5819;49.648;8.330;2023-02-22T03:33:22;24.55;;;20.55;;
11524;SDS011;5819;49.648;8.330;2023-02-22T03:36:04;26.00;;;19.40;;
11524;SDS011;5819;49.648;8.330;2023-02-22T03:38:37;24.75;;;20.58;;
11524;SDS011;5819;49.648;8.330;2023-02-22T03:41:11;25.63;;;20.10;;
11524;SDS011;5819;49.648;8.330;2023-02-22T03:43:45;26.60;;;20.38;;
11524;SDS011;5819;49.648;8.330;2023-02-22T03:46:16;24.75;;;20.33;;
11524;SDS011;5819;49.648;8.330;2023-02-22T03:48:47;25.10;;;20.15;;
11524;SDS011;5819;49.648;8.330;2023-02-22T03:51:22;24.85;;;19.67;;
11524;SDS011;5819;49.648;8.330;2023-02-22T03:53:56;22.88;;;18.65;;
11524;SDS011;5819;49.648;8.330;2023-02-22T03:56:30;21.80;;;17.90;;
11524;SDS011;5819;49.648;8.330;2023-02-22T03:59:02;25.45;;;18.50;;
11524;SDS011;5819;49.648;8.330;2023-02-22T04:01:33;24.20;;;18.33;;
11524;SDS011;5819;49.648;8.330;2023-02-22T04:04:02;25.92;;;18.80;;
11524;SDS011;5819;49.648;8.330;2023-02-22T04:06:32;23.27;;;17.65;;
11524;SDS011;5819;49.648;8.330;2023-02-22T04:09:01;21.95;;;17.27;;
11524;SDS011;5819;49.648;8.330;2023-02-22T04:11:30;23.42;;;17.98;;
11524;SDS011;5819;49.648;8.330;2023-02-22T04:13:58;25.58;;;17.77;;
11524;SDS011;5819;49.648;8.330;2023-02-22T04:16:26;23.58;;;18.73;;
11524;SDS011;5819;49.648;8.330;2023-02-22T04:18:56;24.48;;;17.90;;
11524;SDS011;5819;49.648;8.330;2023-02-22T04:21:24;26.38;;;19.17;;
11524;SDS011;5819;49.648;8.330;2023-02-22T04:23:53;24.27;;;18.63;;
11524;SDS011;5819;49.648;8.330;2023-02-22T04:26:21;27.05;;;20.02;;
11524;SDS011;5819;49.648;8.330;2023-02-22T04:28:53;27.55;;;20.70;;
11524;SDS011;5819;49.648;8.330;2023-02-22T04:31:23;24.98;;;19.27;;
11524;SDS011;5819;49.648;8.330;2023-02-22T04:33:53;28.83;;;19.35;;
11524;SDS011;5819;49.648;8.330;2023-02-22T04:36:26;25.13;;;18.77;;
11524;SDS011;5819;49.648;8.330;2023-02-22T04:38:59;24.52;;;18.92;;
11524;SDS011;5819;49.648;8.330;2023-02-22T04:41:29;27.98;;;19.55;;
11524;SDS011;5819;49.648;8.330;2023-02-22T04:43:57;26.27;;;19.88;;
11524;SDS011;5819;49.648;8.330;2023-02-22T04:46:26;28.70;;;20.23;;
11524;SDS011;5819;49.648;8.330;2023-02-22T04:48:55;28.33;;;20.05;;
11524;SDS011;5819;49.648;8.330;2023-02-22T04:51:25;25.08;;;19.70;;
11524;SDS011;5819;49.648;8.330;2023-02-22T04:54:01;30.00;;;21.25;;
11524;SDS011;5819;49.648;8.330;2023-02-22T04:56:32;26.77;;;21.60;;
11524;SDS011;5819;49.648;8.330;2023-02-22T04:59:00;29.73;;;21.35;;
11524;SDS011;5819;49.648;8.330;2023-02-22T05:01:30;26.00;;;20.40;;
11524;SDS011;5819;49.648;8.330;2023-02-22T05:04:00;24.85;;;19.35;;
11524;SDS011;5819;49.648;8.330;2023-02-22T05:06:28;26.83;;;19.95;;
11524;SDS011;5819;49.648;8.330;2023-02-22T05:08:57;29.17;;;20.60;;
11524;SDS011;5819;49.648;8.330;2023-02-22T05:11:26;25.30;;;20.00;;
11524;SDS011;5819;49.648;8.330;2023-02-22T05:13:55;28.00;;;20.70;;
11524;SDS011;5819;49.648;8.330;2023-02-22T05:16:23;27.80;;;19.75;;
11524;SDS011;5819;49.648;8.330;2023-02-22T05:18:51;26.80;;;19.75;;
11524;SDS011;5819;49.648;8.330;2023-02-22T05:21:19;24.83;;;19.80;;
11524;SDS011;5819;49.648;8.330;2023-02-22T05:23:47;27.30;;;19.88;;
11524;SDS011;5819;49.648;8.330;2023-02-22T05:26:15;26.33;;;19.98;;
11524;SDS011;5819;49.648;8.330;2023-02-22T05:28:45;24.98;;;19.05;;
11524;SDS011;5819;49.648;8.330;2023-02-22T05:31:13;22.52;;;17.48;;
11524;SDS011;5819;49.648;8.330;2023-02-22T05:33:41;25.05;;;19.02;;
11524;SDS011;5819;49.648;8.330;2023-02-22T05:36:09;26.40;;;18.52;;
11524;SDS011;5819;49.648;8.330;2023-02-22T05:38:37;28.33;;;19.13;;
11524;SDS011;5819;49.648;8.330;2023-02-22T05:41:08;23.02;;;16.50;;
11524;SDS011;5819;49.648;8.330;2023-02-22T05:43:37;22.02;;;16.30;;
11524;SDS011;5819;49.648;8.330;2023-02-22T05:46:07;22.08;;;16.17;;
11524;SDS011;5819;49.648;8.330;2023-02-22T05:48:36;22.23;;;16.38;;
11524;SDS011;5819;49.648;8.330;2023-02-22T05:51:04;20.40;;;15.80;;
11524;SDS011;5819;49.648;8.330;2023-02-22T05:53:32;26.33;;;18.27;;
11524;SDS011;5819;49.648;8.330;2023-02-22T05:56:00;25.98;;;17.13;;
11524;SDS011;5819;49.648;8.330;2023-02-22T05:58:28;24.08;;;15.80;;
11524;SDS011;5819;49.648;8.330;2023-02-22T06:00:57;20.63;;;16.48;;
11524;SDS011;5819;49.648;8.330;2023-02-22T06:03:30;23.08;;;16.33;;
11524;SDS011;5819;49.648;8.330;2023-02-22T06:05:58;20.92;;;16.23;;
11524;SDS011;5819;49.648;8.330;2023-02-22T06:08:25;23.23;;;17.73;;
11524;SDS011;5819;49.648;8.330;2023-02-22T06:10:54;20.75;;;15.10;;
11524;SDS011;5819;49.648;8.330;2023-02-22T06:13:21;21.20;;;15.32;;
11524;SDS011;5819;49.648;8.330;2023-02-22T06:15:49;19.40;;;15.20;;
11524;SDS011;5819;49.648;8.330;2023-02-22T06:18:17;20.60;;;15.10;;
11524;SDS011;5819;49.648;8.330;2023-02-22T06:20:46;20.02;;;14.70;;
11524;SDS011;5819;49.648;8.330;2023-02-22T06:23:14;16.63;;;13.13;;
11524;SDS011;5819;49.648;8.330;2023-02-22T06:25:42;18.45;;;13.05;;
11524;SDS011;5819;49.648;8.330;2023-02-22T06:28:11;22.17;;;13.38;;
11524;SDS011;5819;49.648;8.330;2023-02-22T06:30:39;19.30;;;14.45;;
11524;SDS011;5819;49.648;8.330;2023-02-22T06:33:08;18.75;;;12.60;;
11524;SDS011;5819;49.648;8.330;2023-02-22T06:35:37;17.55;;;12.05;;
11524;SDS011;5819;49.648;8.330;2023-02-22T06:38:07;21.48;;;14.38;;
11524;SDS011;5819;49.648;8.330;2023-02-22T06:40:34;16.98;;;11.98;;
11524;SDS011;5819;49.648;8.330;2023-02-22T06:43:02;18.05;;;10.82;;
11524;SDS011;5819;49.648;8.330;2023-02-22T06:45:30;17.10;;;11.10;;
11524;SDS011;5819;49.648;8.330;2023-02-22T06:47:58;19.35;;;11.70;;
11524;SDS011;5819;49.648;8.330;2023-02-22T06:50:27;17.13;;;11.45;;
11524;SDS011;5819;49.648;8.330;2023-02-22T06:52:59;16.27;;;11.02;;
11524;SDS011;5819;49.648;8.330;2023-02-22T06:55:29;19.13;;;11.30;;
11524;SDS011;5819;49.648;8.330;2023-02-22T06:57:59;20.88;;;11.32;;
11524;SDS011;5819;49.648;8.330;2023-02-22T07:00:27;19.38;;;12.27;;
11524;SDS011;5819;49.648;8.330;2023-02-22T07:02:58;17.45;;;12.05;;
11524;SDS011;5819;49.648;8.330;2023-02-22T07:05:26;17.73;;;12.20;;
11524;SDS011;5819;49.648;8.330;2023-02-22T07:08:02;21.67;;;14.70;;
11524;SDS011;5819;49.648;8.330;2023-02-22T07:10:34;23.02;;;14.38;;
11524;SDS011;5819;49.648;8.330;2023-02-22T07:13:03;16.90;;;13.48;;
11524;SDS011;5819;49.648;8.330;2023-02-22T07:15:33;17.38;;;12.85;;
11524;SDS011;5819;49.648;8.330;2023-02-22T07:18:07;17.17;;;12.25;;
11524;SDS011;5819;49.648;8.330;2023-02-22T07:20:43;23.05;;;13.77;;
11524;SDS011;5819;49.648;8.330;2023-02-22T07:23:29;19.25;;;12.70;;
11524;SDS011;5819;49.648;8.330;2023-02-22T07:26:00;17.50;;;12.48;;
11524;SDS011;5819;49.648;8.330;2023-02-22T07:28:28;24.50;;;12.80;;
11524;SDS011;5819;49.648;8.330;2023-02-22T07:30:57;17.27;;;12.40;;
11524;SDS011;5819;49.648;8.330;2023-02-22T07:33:26;16.13;;;12.93;;
11524;SDS011;5819;49.648;8.330;2023-02-22T07:35:54;24.10;;;15.27;;
11524;SDS011;5819;49.648;8.330;2023-02-22T07:38:22;20.58;;;14.50;;
11524;SDS011;5819;49.648;8.330;2023-02-22T07:40:50;19.13;;;13.55;;
11524;SDS011;5819;49.648;8.330;2023-02-22T07:43:19;16.80;;;12.00;;
11524;SDS011;5819;49.648;8.330;2023-02-22T07:45:52;19.70;;;13.52;;
11524;SDS011;5819;49.648;8.330;2023-02-22T07:48:22;22.23;;;13.10;;
11524;SDS011;5819;49.648;8.330;2023-02-22T07:50:50;16.00;;;12.10;;
11524;SDS011;5819;49.648;8.330;2023-02-22T07:53:19;18.13;;;12.50;;
11524;SDS011;5819;49.648;8.330;2023-02-22T07:55:47;16.80;;;12.65;;
11524;SDS011;5819;49.648;8.330;2023-02-22T07:58:17;15.30;;;12.20;;
11524;SDS011;5819;49.648;8.330;2023-02-22T08:00:47;18.05;;;12.25;;
11524;SDS011;5819;49.648;8.330;2023-02-22T08:03:16;18.58;;;12.77;;
11524;SDS011;5819;49.648;8.330;2023-02-22T08:05:46;16.67;;;12.82;;
11524;SDS011;5819;49.648;8.330;2023-02-22T08:08:15;20.75;;;13.93;;
11524;SDS011;5819;49.648;8.330;2023-02-22T08:10:45;19.10;;;13.98;;
11524;SDS011;5819;49.648;8.330;2023-02-22T08:13:14;20.67;;;13.93;;
11524;SDS011;5819;49.648;8.330;2023-02-22T08:15:44;19.63;;;14.25;;
11524;SDS011;5819;49.648;8.330;2023-02-22T08:18:15;21.02;;;14.90;;
11524;SDS011;5819;49.648;8.330;2023-02-22T08:20:45;20.85;;;14.27;;
11524;SDS011;5819;49.648;8.330;2023-02-22T08:23:15;21.85;;;15.52;;
11524;SDS011;5819;49.648;8.330;2023-02-22T08:25:45;22.55;;;15.15;;
11524;SDS011;5819;49.648;8.330;2023-02-22T08:28:14;20.55;;;15.55;;
11524;SDS011;5819;49.648;8.330;2023-02-22T08:30:45;21.75;;;15.52;;
11524;SDS011;5819;49.648;8.330;2023-02-22T08:33:14;24.20;;;16.40;;
11524;SDS011;5819;49.648;8.330;2023-02-22T08:35:45;23.55;;;15.70;;
11524;SDS011;5819;49.648;8.330;2023-02-22T08:38:16;22.27;;;15.68;;
11524;SDS011;5819;49.648;8.330;2023-02-22T08:40:47;25.50;;;16.13;;
11524;SDS011;5819;49.648;8.330;2023-02-22T08:43:16;25.02;;;15.32;;
11524;SDS011;5819;49.648;8.330;2023-02-22T08:45:47;24.80;;;15.80;;
11524;SDS011;5819;49.648;8.330;2023-02-22T08:48:17;24.13;;;16.20;;
11524;SDS011;5819;49.648;8.330;2023-02-22T08:50:46;22.25;;;15.20;;
11524;SDS011;5819;49.648;8.330;2023-02-22T08:53:14;23.02;;;16.42;;
11524;SDS011;5819;49.648;8.330;2023-02-22T08:55:43;29.15;;;17.23;;
11524;SDS011;5819;49.648;8.330;2023-02-22T08:58:11;20.77;;;15.50;;
11524;SDS011;5819;49.648;8.330;2023-02-22T09:00:40;23.38;;;16.95;;
11524;SDS011;5819;49.648;8.330;2023-02-22T09:03:12;25.10;;;17.50;;
11524;SDS011;5819;49.648;8.330;2023-02-22T09:05:41;25.20;;;16.55;;
11524;SDS011;5819;49.648;8.330;2023-02-22T09:08:10;24.00;;;17.30;;
11524;SDS011;5819;49.648;8.330;2023-02-22T09:10:38;21.90;;;17.45;;
11524;SDS011;5819;49.648;8.330;2023-02-22T09:13:07;22.92;;;18.15;;
11524;SDS011;5819;49.648;8.330;2023-02-22T09:15:34;20.40;;;17.42;;
11524;SDS011;5819;49.648;8.330;2023-02-22T09:18:03;24.60;;;17.25;;
11524;SDS011;5819;49.648;8.330;2023-02-22T09:20:35;22.88;;;17.85;;
11524;SDS011;5819;49.648;8.330;2023-02-22T09:23:03;22.63;;;18.23;;
11524;SDS011;5819;49.648;8.330;2023-02-22T09:25:32;25.52;;;19.63;;
11524;SDS011;5819;49.648;8.330;2023-02-22T09:28:01;25.58;;;18.95;;
11524;SDS011;5819;49.648;8.330;2023-02-22T09:30:29;23.58;;;18.58;;
11524;SDS011;5819;49.648;8.330;2023-02-22T09:33:00;21.52;;;17.92;;
11524;SDS011;5819;49.648;8.330;2023-02-22T09:35:29;23.50;;;19.02;;
11524;SDS011;5819;49.648;8.330;2023-02-22T09:38:03;28.30;;;18.65;;
11524;SDS011;5819;49.648;8.330;2023-02-22T09:40:33;25.90;;;19.30;;
11524;SDS011;5819;49.648;8.330;2023-02-22T09:43:08;25.23;;;19.30;;
11524;SDS011;5819;49.648;8.330;2023-02-22T09:45:53;26.25;;;18.83;;
11524;SDS011;5819;49.648;8.330;2023-02-22T09:48:32;23.40;;;18.55;;
11524;SDS011;5819;49.648;8.330;2023-02-22T09:51:04;24.90;;;18.63;;
11524;SDS011;5819;49.648;8.330;2023-02-22T09:53:39;22.65;;;18.90;;
11524;SDS011;5819;49.648;8.330;2023-02-22T09:56:12;24.27;;;18.08;;
11524;SDS011;5819;49.648;8.330;2023-02-22T09:58:43;23.67;;;16.75;;
11524;SDS011;5819;49.648;8.330;2023-02-22T10:01:17;30.13;;;17.95;;
11524;SDS011;5819;49.648;8.330;2023-02-22T10:03:54;23.48;;;18.13;;
11524;SDS011;5819;49.648;8.330;2023-02-22T10:06:26;26.08;;;16.33;;
11524;SDS011;5819;49.648;8.330;2023-02-22T10:08:57;25.00;;;17.75;;
11524;SDS011;5819;49.648;8.330;2023-02-22T10:11:41;23.10;;;16.38;;
11524;SDS011;5819;49.648;8.330;2023-02-22T10:14:23;23.27;;;18.00;;
11524;SDS011;5819;49.648;8.330;2023-02-22T10:17:21;22.90;;;17.70;;
11524;SDS011;5819;49.648;8.330;2023-02-22T10:20:02;22.27;;;16.85;;
11524;SDS011;5819;49.648;8.330;2023-02-22T10:22:45;24.88;;;17.40;;
11524;SDS011;5819;49.648;8.330;2023-02-22T10:25:24;22.63;;;17.52;;
11524;SDS011;5819;49.648;8.330;2023-02-22T10:27:54;20.75;;;16.85;;
11524;SDS011;5819;49.648;8.330;2023-02-22T10:30:25;22.02;;;16.40;;
11524;SDS011;5819;49.648;8.330;2023-02-22T10:33:02;21.00;;;15.15;;
11524;SDS011;5819;49.648;8.330;2023-02-22T10:35:35;25.08;;;16.35;;
11524;SDS011;5819;49.648;8.330;2023-02-22T10:38:10;21.95;;;16.67;;
11524;SDS011;5819;49.648;8.330;2023-02-22T10:40:44;22.50;;;16.90;;
11524;SDS011;5819;49.648;8.330;2023-02-22T10:43:16;26.27;;;17.65;;
11524;SDS011;5819;49.648;8.330;2023-02-22T10:45:44;24.17;;;17.42;;
11524;SDS011;5819;49.648;8.330;2023-02-22T10:48:12;21.27;;;16.65;;
11524;SDS011;5819;49.648;8.330;2023-02-22T10:50:44;23.40;;;16.85;;
11524;SDS011;5819;49.648;8.330;2023-02-22T10:53:13;22.70;;;16.95;;
11524;SDS011;5819;49.648;8.330;2023-02-22T10:58:40;21.05;;;16.90;;
11524;SDS011;5819;49.648;8.330;2023-02-22T11:01:19;22.83;;;16.25;;
11524;SDS011;5819;49.648;8.330;2023-02-22T11:03:55;20.30;;;17.38;;
11524;SDS011;5819;49.648;8.330;2023-02-22T11:06:31;24.83;;;16.65;;
11524;SDS011;5819;49.648;8.330;2023-02-22T11:09:04;24.20;;;17.08;;
11524;SDS011;5819;49.648;8.330;2023-02-22T11:11:37;18.63;;;16.23;;
11524;SDS011;5819;49.648;8.330;2023-02-22T11:14:06;22.48;;;16.92;;
11524;SDS011;5819;49.648;8.330;2023-02-22T11:16:36;21.40;;;16.23;;
11524;SDS011;5819;49.648;8.330;2023-02-22T11:19:10;18.83;;;16.75;;
11524;SDS011;5819;49.648;8.330;2023-02-22T11:21:46;18.25;;;15.70;;
11524;SDS011;5819;49.648;8.330;2023-02-22T11:24:16;20.75;;;16.65;;
11524;SDS011;5819;49.648;8.330;2023-02-22T11:26:52;21.13;;;16.15;;
11524;SDS011;5819;49.648;8.330;2023-02-22T11:29:24;21.90;;;16.38;;
11524;SDS011;5819;49.648;8.330;2023-02-22T11:31:57;20.98;;;15.90;;
11524;SDS011;5819;49.648;8.330;2023-02-22T11:34:33;21.45;;;16.38;;
11524;SDS011;5819;49.648;8.330;2023-02-22T11:37:16;20.92;;;16.27;;
11524;SDS011;5819;49.648;8.330;2023-02-22T11:39:53;18.27;;;15.43;;
11524;SDS011;5819;49.648;8.330;2023-02-22T11:42:33;18.23;;;15.82;;
11524;SDS011;5819;49.648;8.330;2023-02-22T11:45:09;19.55;;;15.40;;
11524;SDS011;5819;49.648;8.330;2023-02-22T11:47:47;16.48;;;14.80;;
11524;SDS011;5819;49.648;8.330;2023-02-22T11:50:25;18.67;;;15.90;;
11524;SDS011;5819;49.648;8.330;2023-02-22T11:53:02;25.27;;;15.70;;
11524;SDS011;5819;49.648;8.330;2023-02-22T11:55:52;20.95;;;15.95;;
11524;SDS011;5819;49.648;8.330;2023-02-22T11:58:34;21.02;;;16.38;;
11524;SDS011;5819;49.648;8.330;2023-02-22T12:01:12;20.48;;;15.27;;
11524;SDS011;5819;49.648;8.330;2023-02-22T12:04:07;23.77;;;16.67;;
11524;SDS011;5819;49.648;8.330;2023-02-22T12:07:09;20.83;;;15.10;;
11524;SDS011;5819;49.648;8.330;2023-02-22T12:09:45;19.25;;;14.80;;
11524;SDS011;5819;49.648;8.330;2023-02-22T12:12:23;18.27;;;14.00;;
11524;SDS011;5819;49.648;8.330;2023-02-22T12:15:02;15.43;;;13.00;;
11524;SDS011;5819;49.648;8.330;2023-02-22T12:17:42;14.98;;;12.70;;
11524;SDS011;5819;49.648;8.330;2023-02-22T12:20:26;14.32;;;12.70;;
11524;SDS011;5819;49.648;8.330;2023-02-22T12:23:02;14.73;;;13.15;;
11524;SDS011;5819;49.648;8.330;2023-02-22T12:25:40;18.33;;;13.90;;
11524;SDS011;5819;49.648;8.330;2023-02-22T12:28:15;19.98;;;13.40;;
11524;SDS011;5819;49.648;8.330;2023-02-22T12:30:53;15.48;;;13.20;;
11524;SDS011;5819;49.648;8.330;2023-02-22T12:33:30;17.67;;;12.75;;
11524;SDS011;5819;49.648;8.330;2023-02-22T12:36:07;20.40;;;13.02;;
11524;SDS011;5819;49.648;8.330;2023-02-22T12:38:42;16.77;;;13.02;;
11524;SDS011;5819;49.648;8.330;2023-02-22T12:41:19;20.10;;;13.73;;
11524;SDS011;5819;49.648;8.330;2023-02-22T12:43:53;16.98;;;13.82;;
11524;SDS011;5819;49.648;8.330;2023-02-22T12:46:28;16.27;;;13.32;;
11524;SDS011;5819;49.648;8.330;2023-02-22T12:49:02;19.08;;;14.38;;
11524;SDS011;5819;49.648;8.330;2023-02-22T12:51:39;20.42;;;14.27;;
11524;SDS011;5819;49.648;8.330;2023-02-22T12:54:12;18.52;;;13.13;;
11524;SDS011;5819;49.648;8.330;2023-02-22T12:56:48;19.20;;;14.52;;
11524;SDS011;5819;49.648;8.330;2023-02-22T12:59:21;18.98;;;14.65;;
11524;SDS011;5819;49.648;8.330;2023-02-22T13:01:59;17.63;;;14.90;;
11524;SDS011;5819;49.648;8.330;2023-02-22T13:04:35;19.05;;;14.23;;
11524;SDS011;5819;49.648;8.330;2023-02-22T13:07:09;17.45;;;13.77;;
11524;SDS011;5819;49.648;8.330;2023-02-22T13:10:00;17.92;;;15.77;;
11524;SDS011;5819;49.648;8.330;2023-02-22T13:12:42;26.00;;;15.90;;
11524;SDS011;5819;49.648;8.330;2023-02-22T13:15:19;21.45;;;14.60;;
11524;SDS011;5819;49.648;8.330;2023-02-22T13:17:57;19.50;;;16.27;;
11524;SDS011;5819;49.648;8.330;2023-02-22T13:20:35;19.02;;;15.10;;
11524;SDS011;5819;49.648;8.330;2023-02-22T13:23:13;21.20;;;15.30;;
11524;SDS011;5819;49.648;8.330;2023-02-22T13:25:52;19.13;;;15.75;;
11524;SDS011;5819;49.648;8.330;2023-02-22T13:28:27;19.70;;;15.73;;
11524;SDS011;5819;49.648;8.330;2023-02-22T13:31:06;22.98;;;16.17;;
11524;SDS011;5819;49.648;8.330;2023-02-22T13:34:02;20.25;;;15.70;;
11524;SDS011;5819;49.648;8.330;2023-02-22T13:37:00;19.77;;;15.27;;
11524;SDS011;5819;49.648;8.330;2023-02-22T13:39:55;21.58;;;17.00;;
11524;SDS011;5819;49.648;8.330;2023-02-22T13:45:50;21.33;;;15.95;;
11524;SDS011;5819;49.648;8.330;2023-02-22T13:51:43;23.20;;;17.05;;
11524;SDS011;5819;49.648;8.330;2023-02-22T13:54:16;19.55;;;16.15;;
11524;SDS011;5819;49.648;8.330;2023-02-22T13:56:51;20.35;;;16.02;;
11524;SDS011;5819;49.648;8.330;2023-02-22T13:59:24;21.17;;;15.73;;
11524;SDS011;5819;49.648;8.330;2023-02-22T14:01:55;22.90;;;13.88;;
11524;SDS011;5819;49.648;8.330;2023-02-22T14:10:35;21.25;;;15.02;;
11524;SDS011;5819;49.648;8.330;2023-02-22T14:13:09;18.77;;;15.27;;
11524;SDS011;5819;49.648;8.330;2023-02-22T14:18:40;17.33;;;13.63;;
11524;SDS011;5819;49.648;8.330;2023-02-22T14:21:11;17.42;;;14.68;;
11524;SDS011;5819;49.648;8.330;2023-02-22T14:23:42;19.52;;;14.40;;
11524;SDS011;5819;49.648;8.330;2023-02-22T14:26:14;20.25;;;13.68;;
11524;SDS011;5819;49.648;8.330;2023-02-22T14:28:53;21.48;;;14.55;;
11524;SDS011;5819;49.648;8.330;2023-02-22T14:31:25;21.92;;;13.68;;
11524;SDS011;5819;49.648;8.330;2023-02-22T14:34:08;22.45;;;15.35;;
11524;SDS011;5819;49.648;8.330;2023-02-22T14:36:45;18.33;;;14.48;;
11524;SDS011;5819;49.648;8.330;2023-02-22T14:39:19;19.27;;;13.85;;
11524;SDS011;5819;49.648;8.330;2023-02-22T14:41:54;18.88;;;14.88;;
11524;SDS011;5819;49.648;8.330;2023-02-22T14:44:28;20.80;;;15.55;;
11524;SDS011;5819;49.648;8.330;2023-02-22T14:47:08;17.25;;;14.27;;
11524;SDS011;5819;49.648;8.330;2023-02-22T14:49:43;25.10;;;15.38;;
11524;SDS011;5819;49.648;8.330;2023-02-22T14:52:18;18.17;;;14.05;;
11524;SDS011;5819;49.648;8.330;2023-02-22T14:54:53;18.48;;;14.40;;
11524;SDS011;5819;49.648;8.330;2023-02-22T14:57:32;18.23;;;14.13;;
11524;SDS011;5819;49.648;8.330;2023-02-22T15:00:13;18.92;;;14.20;;
11524;SDS011;5819;49.648;8.330;2023-02-22T15:02:56;17.27;;;12.80;;
11524;SDS011;5819;49.648;8.330;2023-02-22T15:05:27;19.08;;;13.63;;
11524;SDS011;5819;49.648;8.330;2023-02-22T15:08:11;18.55;;;13.35;;
11524;SDS011;5819;49.648;8.330;2023-02-22T15:10:44;18.77;;;13.73;;
11524;SDS011;5819;49.648;8.330;2023-02-22T15:13:15;16.92;;;13.25;;
11524;SDS011;5819;49.648;8.330;2023-02-22T15:15:46;19.42;;;13.75;;
11524;SDS011;5819;49.648;8.330;2023-02-22T15:18:18;17.23;;;13.80;;
11524;SDS011;5819;49.648;8.330;2023-02-22T15:20:49;21.10;;;13.70;;
11524;SDS011;5819;49.648;8.330;2023-02-22T15:23:25;18.90;;;13.82;;
11524;SDS011;5819;49.648;8.330;2023-02-22T15:25:56;16.42;;;12.68;;
11524;SDS011;5819;49.648;8.330;2023-02-22T15:28:26;20.52;;;13.75;;
11524;SDS011;5819;49.648;8.330;2023-02-22T15:31:16;18.73;;;13.07;;
11524;SDS011;5819;49.648;8.330;2023-02-22T15:33:52;16.08;;;11.45;;